sensor_id;sensor_type;location;lat;lon;timestamp;pressure;altitude;pressure_sealevel;temperature;humidity
35226;BME280;21813;49.686;21.766;2023-06-26T00:01:34;98354.97;;;17.89;100.00
35226;BME280;21813;49.686;21.766;2023-06-26T00:04:15;98346.22;;;17.81;100.00
35226;BME280;21813;49.686;21.766;2023-06-26T00:17:52;98350.03;;;17.78;100.00
35226;BME280;21813;49.686;21.766;2023-06-26T00:20:27;98350.19;;;17.77;100.00
35226;BME280;21813;49.686;21.766;2023-06-26T00:23:02;98345.91;;;17.76;100.00
35226;BME280;21813;49.686;21.766;2023-06-26T00:26:01;98354.31;;;17.71;100.00
35226;BME280;21813;49.686;21.766;2023-06-26T00:32:07;98353.31;;;17.72;100.00
35226;BME280;21813;49.686;21.766;2023-06-26T00:34:34;98326.31;;;17.54;100.00
35226;BME280;21813;49.686;21.766;2023-06-26T00:37:00;98324.84;;;17.51;100.00
35226;BME280;21813;49.686;21.766;2023-06-26T00:39:27;98318.59;;;17.44;100.00
35226;BME280;21813;49.686;21.766;2023-06-26T00:41:59;98339.31;;;17.55;100.00
35226;BME280;21813;49.686;21.766;2023-06-26T00:44:26;98354.31;;;17.55;100.00
35226;BME280;21813;49.686;21.766;2023-06-26T00:46:55;98346.75;;;17.52;100.00
35226;BME280;21813;49.686;21.766;2023-06-26T00:49:37;98317.13;;;17.34;100.00
35226;BME280;21813;49.686;21.766;2023-06-26T00:52:36;98361.59;;;17.61;100.00
35226;BME280;21813;49.686;21.766;2023-06-26T00:56:07;98313.81;;;17.32;100.00
35226;BME280;21813;49.686;21.766;2023-06-26T00:59:10;98325.69;;;17.36;100.00
35226;BME280;21813;49.686;21.766;2023-06-26T01:01:36;98334.91;;;17.48;100.00
35226;BME280;21813;49.686;21.766;2023-06-26T01:04:22;98343.44;;;17.50;100.00
35226;BME280;21813;49.686;21.766;2023-06-26T01:07:22;98338.19;;;17.50;100.00
35226;BME280;21813;49.686;21.766;2023-06-26T01:13:00;98353.66;;;17.53;100.00
35226;BME280;21813;49.686;21.766;2023-06-26T01:15:34;98325.69;;;17.36;100.00
35226;BME280;21813;49.686;21.766;2023-06-26T01:21:30;98304.28;;;17.22;100.00
35226;BME280;21813;49.686;21.766;2023-06-26T01:24:15;98305.94;;;17.23;100.00
35226;BME280;21813;49.686;21.766;2023-06-26T01:27:10;98349.69;;;17.49;100.00
35226;BME280;21813;49.686;21.766;2023-06-26T01:29:45;98320.41;;;17.36;100.00
35226;BME280;21813;49.686;21.766;2023-06-26T01:32:23;98307.59;;;17.25;100.00
35226;BME280;21813;49.686;21.766;2023-06-26T01:38:31;98324.03;;;17.27;100.00
35226;BME280;21813;49.686;21.766;2023-06-26T01:40:58;98296.56;;;17.05;100.00
35226;BME280;21813;49.686;21.766;2023-06-26T01:43:29;98316.31;;;17.17;100.00
35226;BME280;21813;49.686;21.766;2023-06-26T01:46:02;98293.41;;;16.93;100.00
35226;BME280;21813;49.686;21.766;2023-06-26T01:48:49;98331.78;;;17.20;100.00
35226;BME280;21813;49.686;21.766;2023-06-26T01:51:20;98290.78;;;16.85;100.00
35226;BME280;21813;49.686;21.766;2023-06-26T01:53:55;98332.75;;;17.11;100.00
35226;BME280;21813;49.686;21.766;2023-06-26T01:56:30;98305.59;;;16.86;100.00
35226;BME280;21813;49.686;21.766;2023-06-26T01:58:56;98337.88;;;17.04;100.00
35226;BME280;21813;49.686;21.766;2023-06-26T02:01:31;98314.00;;;16.90;100.00
35226;BME280;21813;49.686;21.766;2023-06-26T02:03:59;98334.25;;;17.05;100.00
35226;BME280;21813;49.686;21.766;2023-06-26T02:06:26;98294.06;;;16.79;100.00
35226;BME280;21813;49.686;21.766;2023-06-26T02:08:58;98296.69;;;16.71;100.00
35226;BME280;21813;49.686;21.766;2023-06-26T02:11:25;98303.94;;;16.77;100.00
35226;BME280;21813;49.686;21.766;2023-06-26T02:13:50;98328.97;;;16.89;100.00
35226;BME280;21813;49.686;21.766;2023-06-26T02:16:17;98307.91;;;16.73;100.00
35226;BME280;21813;49.686;21.766;2023-06-26T02:18:42;98305.22;;;16.65;100.00
35226;BME280;21813;49.686;21.766;2023-06-26T02:21:20;98324.53;;;16.73;100.00
35226;BME280;21813;49.686;21.766;2023-06-26T02:23:50;98283.97;;;16.50;100.00
35226;BME280;21813;49.686;21.766;2023-06-26T02:26:17;98289.06;;;16.52;100.00
35226;BME280;21813;49.686;21.766;2023-06-26T02:28:45;98321.69;;;16.59;100.00
35226;BME280;21813;49.686;21.766;2023-06-26T02:31:12;98312.44;;;16.55;100.00
35226;BME280;21813;49.686;21.766;2023-06-26T02:33:38;98306.50;;;16.53;100.00
35226;BME280;21813;49.686;21.766;2023-06-26T02:36:05;98322.63;;;16.50;100.00
35226;BME280;21813;49.686;21.766;2023-06-26T02:38:31;98308.44;;;16.34;100.00
35226;BME280;21813;49.686;21.766;2023-06-26T02:40:58;98307.47;;;16.44;100.00
35226;BME280;21813;49.686;21.766;2023-06-26T02:43:23;98326.72;;;16.52;100.00
35226;BME280;21813;49.686;21.766;2023-06-26T02:45:50;98324.91;;;16.45;100.00
35226;BME280;21813;49.686;21.766;2023-06-26T02:48:22;98317.16;;;16.43;100.00
35226;BME280;21813;49.686;21.766;2023-06-26T02:50:52;98343.47;;;16.43;100.00
35226;BME280;21813;49.686;21.766;2023-06-26T02:53:20;98316.94;;;16.20;100.00
35226;BME280;21813;49.686;21.766;2023-06-26T02:56:09;98339.97;;;16.26;100.00
35226;BME280;21813;49.686;21.766;2023-06-26T02:58:37;98322.81;;;16.14;100.00
35226;BME280;21813;49.686;21.766;2023-06-26T03:01:39;98339.16;;;16.26;100.00
35226;BME280;21813;49.686;21.766;2023-06-26T03:11:08;98315.59;;;16.16;100.00
35226;BME280;21813;49.686;21.766;2023-06-26T03:13:36;98309.03;;;16.12;100.00
35226;BME280;21813;49.686;21.766;2023-06-26T03:19:33;98296.47;;;15.98;100.00
35226;BME280;21813;49.686;21.766;2023-06-26T03:21:59;98329.75;;;16.23;100.00
35226;BME280;21813;49.686;21.766;2023-06-26T03:24:26;98297.31;;;15.99;100.00
35226;BME280;21813;49.686;21.766;2023-06-26T03:26:52;98319.72;;;16.19;100.00
35226;BME280;21813;49.686;21.766;2023-06-26T03:29:19;98294.34;;;16.02;100.00
35226;BME280;21813;49.686;21.766;2023-06-26T03:31:45;98341.31;;;16.30;100.00
35226;BME280;21813;49.686;21.766;2023-06-26T03:34:13;98310.34;;;16.16;100.00
35226;BME280;21813;49.686;21.766;2023-06-26T03:36:38;98306.75;;;16.17;100.00
35226;BME280;21813;49.686;21.766;2023-06-26T03:39:04;98295.88;;;16.12;100.00
35226;BME280;21813;49.686;21.766;2023-06-26T03:41:30;98314.31;;;16.28;100.00
35226;BME280;21813;49.686;21.766;2023-06-26T03:43:58;98320.59;;;16.35;100.00
35226;BME280;21813;49.686;21.766;2023-06-26T03:46:29;98317.31;;;16.33;100.00
35226;BME280;21813;49.686;21.766;2023-06-26T03:49:01;98313.38;;;16.38;100.00
35226;BME280;21813;49.686;21.766;2023-06-26T03:54:07;98296.38;;;16.24;100.00
35226;BME280;21813;49.686;21.766;2023-06-26T03:56:48;98313.38;;;16.38;100.00
35226;BME280;21813;49.686;21.766;2023-06-26T03:59:19;98319.47;;;16.46;100.00
35226;BME280;21813;49.686;21.766;2023-06-26T04:01:44;98319.00;;;16.51;100.00
35226;BME280;21813;49.686;21.766;2023-06-26T04:04:20;98311.75;;;16.53;100.00
35226;BME280;21813;49.686;21.766;2023-06-26T04:10:38;98346.25;;;17.00;100.00
35226;BME280;21813;49.686;21.766;2023-06-26T04:13:08;98335.72;;;16.92;100.00
35226;BME280;21813;49.686;21.766;2023-06-26T04:15:43;98330.31;;;17.09;100.00
35226;BME280;21813;49.686;21.766;2023-06-26T04:18:11;98302.97;;;17.02;100.00
35226;BME280;21813;49.686;21.766;2023-06-26T04:21:04;98306.59;;;17.17;100.00
35226;BME280;21813;49.686;21.766;2023-06-26T04:23:32;98354.31;;;17.55;100.00
35226;BME280;21813;49.686;21.766;2023-06-26T04:25:57;98321.41;;;17.43;100.00
35226;BME280;21813;49.686;21.766;2023-06-26T04:28:32;98361.06;;;17.74;100.00
35226;BME280;21813;49.686;21.766;2023-06-26T04:30:59;98328.97;;;17.70;100.00
35226;BME280;21813;49.686;21.766;2023-06-26T04:33:26;98321.69;;;17.72;100.00
35226;BME280;21813;49.686;21.766;2023-06-26T04:35:55;98332.53;;;17.85;100.00
35226;BME280;21813;49.686;21.766;2023-06-26T04:41:16;98353.53;;;18.18;100.00
35226;BME280;21813;49.686;21.766;2023-06-26T04:44:29;98357.28;;;18.23;100.00
35226;BME280;21813;49.686;21.766;2023-06-26T04:47:36;98318.50;;;17.93;100.00
35226;BME280;21813;49.686;21.766;2023-06-26T04:50:20;98328.88;;;18.02;100.00
35226;BME280;21813;49.686;21.766;2023-06-26T04:52:49;98366.03;;;18.24;100.00
35226;BME280;21813;49.686;21.766;2023-06-26T04:55:30;98333.44;;;18.08;100.00
35226;BME280;21813;49.686;21.766;2023-06-26T04:57:58;98343.59;;;18.28;100.00
35226;BME280;21813;49.686;21.766;2023-06-26T05:00:27;98351.13;;;18.39;100.00
35226;BME280;21813;49.686;21.766;2023-06-26T05:03:06;98344.81;;;18.48;100.00
35226;BME280;21813;49.686;21.766;2023-06-26T05:05:33;98321.50;;;18.29;100.00
35226;BME280;21813;49.686;21.766;2023-06-26T05:08:23;98330.72;;;18.33;100.00
35226;BME280;21813;49.686;21.766;2023-06-26T05:10:49;98363.13;;;18.58;100.00
35226;BME280;21813;49.686;21.766;2023-06-26T05:13:15;98328.38;;;18.38;100.00
35226;BME280;21813;49.686;21.766;2023-06-26T05:15:45;98323.34;;;18.51;100.00
35226;BME280;21813;49.686;21.766;2023-06-26T05:18:11;98320.69;;;18.59;100.00
35226;BME280;21813;49.686;21.766;2023-06-26T05:20:39;98313.97;;;18.57;100.00
35226;BME280;21813;49.686;21.766;2023-06-26T05:23:05;98319.19;;;18.65;100.00
35226;BME280;21813;49.686;21.766;2023-06-26T05:25:33;98365.34;;;19.00;100.00
35226;BME280;21813;49.686;21.766;2023-06-26T05:28:00;98340.91;;;18.97;100.00
35226;BME280;21813;49.686;21.766;2023-06-26T05:30:28;98323.78;;;18.93;100.00
35226;BME280;21813;49.686;21.766;2023-06-26T05:32:56;98343.50;;;19.06;100.00
35226;BME280;21813;49.686;21.766;2023-06-26T05:35:28;98344.09;;;19.16;100.00
35226;BME280;21813;49.686;21.766;2023-06-26T05:37:56;98322.72;;;19.03;100.00
35226;BME280;21813;49.686;21.766;2023-06-26T05:40:23;98347.66;;;19.23;100.00
35226;BME280;21813;49.686;21.766;2023-06-26T05:42:52;98314.69;;;19.19;100.00
35226;BME280;21813;49.686;21.766;2023-06-26T05:45:23;98345.88;;;19.38;100.00
35226;BME280;21813;49.686;21.766;2023-06-26T05:47:51;98344.28;;;19.29;100.00
35226;BME280;21813;49.686;21.766;2023-06-26T05:50:18;98342.69;;;19.28;100.00
35226;BME280;21813;49.686;21.766;2023-06-26T05:53:16;98360.16;;;19.52;100.00
35226;BME280;21813;49.686;21.766;2023-06-26T05:56:20;98322.63;;;19.33;100.00
35226;BME280;21813;49.686;21.766;2023-06-26T05:59:03;98338.91;;;19.45;100.00
35226;BME280;21813;49.686;21.766;2023-06-26T06:01:34;98317.88;;;19.29;100.00
35226;BME280;21813;49.686;21.766;2023-06-26T06:04:00;98312.53;;;19.37;100.00
35226;BME280;21813;49.686;21.766;2023-06-26T06:06:27;98343.50;;;19.51;100.00
35226;BME280;21813;49.686;21.766;2023-06-26T06:08:55;98335.81;;;19.56;100.00
35226;BME280;21813;49.686;21.766;2023-06-26T06:11:27;98357.66;;;19.73;100.00
35226;BME280;21813;49.686;21.766;2023-06-26T06:13:53;98362.22;;;19.79;100.00
35226;BME280;21813;49.686;21.766;2023-06-26T06:16:20;98344.25;;;19.74;100.00
35226;BME280;21813;49.686;21.766;2023-06-26T06:18:46;98322.34;;;19.66;100.00
35226;BME280;21813;49.686;21.766;2023-06-26T06:21:12;98309.59;;;19.69;100.00
35226;BME280;21813;49.686;21.766;2023-06-26T06:23:38;98356.22;;;20.00;100.00
35226;BME280;21813;49.686;21.766;2023-06-26T06:26:04;98322.63;;;19.85;100.00
35226;BME280;21813;49.686;21.766;2023-06-26T06:28:30;98355.78;;;20.11;100.00
35226;BME280;21813;49.686;21.766;2023-06-26T06:30:57;98349.00;;;20.23;96.04
35226;BME280;21813;49.686;21.766;2023-06-26T06:33:22;98319.88;;;20.08;95.88
35226;BME280;21813;49.686;21.766;2023-06-26T06:35:48;98323.91;;;20.19;95.29
35226;BME280;21813;49.686;21.766;2023-06-26T06:38:14;98352.84;;;20.35;96.35
35226;BME280;21813;49.686;21.766;2023-06-26T06:40:40;98314.25;;;20.11;99.16
35226;BME280;21813;49.686;21.766;2023-06-26T06:43:06;98348.28;;;20.29;99.06
35226;BME280;21813;49.686;21.766;2023-06-26T06:45:32;98340.63;;;20.34;99.88
35226;BME280;21813;49.686;21.766;2023-06-26T06:47:57;98320.53;;;20.25;96.74
35226;BME280;21813;49.686;21.766;2023-06-26T06:50:24;98326.00;;;20.38;96.89
35226;BME280;21813;49.686;21.766;2023-06-26T06:52:50;98344.16;;;20.56;99.32
35226;BME280;21813;49.686;21.766;2023-06-26T06:55:18;98357.09;;;20.65;99.63
35226;BME280;21813;49.686;21.766;2023-06-26T06:57:44;98350.41;;;20.69;99.27
35226;BME280;21813;49.686;21.766;2023-06-26T07:00:11;98320.94;;;20.58;98.58
35226;BME280;21813;49.686;21.766;2023-06-26T07:02:41;98349.41;;;20.92;100.00
35226;BME280;21813;49.686;21.766;2023-06-26T07:05:12;98344.41;;;21.18;93.58
35226;BME280;21813;49.686;21.766;2023-06-26T07:07:38;98347.28;;;21.44;94.41
35226;BME280;21813;49.686;21.766;2023-06-26T07:10:06;98324.69;;;21.27;94.48
35226;BME280;21813;49.686;21.766;2023-06-26T07:12:33;98337.63;;;21.37;92.70
35226;BME280;21813;49.686;21.766;2023-06-26T07:15:00;98354.00;;;21.40;96.56
35226;BME280;21813;49.686;21.766;2023-06-26T07:17:26;98326.09;;;21.23;96.68
35226;BME280;21813;49.686;21.766;2023-06-26T07:19:53;98331.66;;;21.28;90.40
35226;BME280;21813;49.686;21.766;2023-06-26T07:22:19;98343.16;;;21.35;91.18
35226;BME280;21813;49.686;21.766;2023-06-26T07:25:01;98348.69;;;21.40;96.80
35226;BME280;21813;49.686;21.766;2023-06-26T07:33:57;98313.19;;;21.41;91.85
35226;BME280;21813;49.686;21.766;2023-06-26T07:36:24;98324.28;;;21.51;92.63
35226;BME280;21813;49.686;21.766;2023-06-26T07:45:47;98343.91;;;22.13;92.55
35226;BME280;21813;49.686;21.766;2023-06-26T07:48:14;98326.00;;;22.28;93.39
35226;BME280;21813;49.686;21.766;2023-06-26T07:50:40;98324.22;;;22.41;89.72
35226;BME280;21813;49.686;21.766;2023-06-26T07:53:09;98306.78;;;22.26;82.80
35226;BME280;21813;49.686;21.766;2023-06-26T07:55:34;98343.84;;;22.40;83.29
35226;BME280;21813;49.686;21.766;2023-06-26T07:58:02;98344.00;;;22.32;83.63
35226;BME280;21813;49.686;21.766;2023-06-26T08:00:55;98345.25;;;22.36;84.32
35226;BME280;21813;49.686;21.766;2023-06-26T08:03:38;98324.84;;;22.43;84.85
35226;BME280;21813;49.686;21.766;2023-06-26T08:06:06;98305.22;;;22.44;83.16
35226;BME280;21813;49.686;21.766;2023-06-26T08:11:23;98345.41;;;22.76;83.67
35226;BME280;21813;49.686;21.766;2023-06-26T08:13:52;98342.75;;;22.76;83.49
35226;BME280;21813;49.686;21.766;2023-06-26T08:16:18;98339.69;;;22.72;83.91
35226;BME280;21813;49.686;21.766;2023-06-26T08:18:44;98315.16;;;22.77;83.21
35226;BME280;21813;49.686;21.766;2023-06-26T08:21:13;98305.09;;;22.66;82.37
35226;BME280;21813;49.686;21.766;2023-06-26T08:23:43;98337.66;;;22.81;83.64
35226;BME280;21813;49.686;21.766;2023-06-26T08:26:21;98325.56;;;22.72;82.84
35226;BME280;21813;49.686;21.766;2023-06-26T08:28:54;98304.44;;;22.57;83.75
35226;BME280;21813;49.686;21.766;2023-06-26T08:31:19;98346.03;;;22.78;84.03
35226;BME280;21813;49.686;21.766;2023-06-26T08:33:47;98335.41;;;22.78;82.59
35226;BME280;21813;49.686;21.766;2023-06-26T08:36:13;98347.47;;;22.80;83.06
35226;BME280;21813;49.686;21.766;2023-06-26T08:38:39;98336.44;;;22.77;82.56
35226;BME280;21813;49.686;21.766;2023-06-26T08:41:08;98325.19;;;22.75;82.63
35226;BME280;21813;49.686;21.766;2023-06-26T08:43:35;98328.09;;;22.93;85.49
35226;BME280;21813;49.686;21.766;2023-06-26T08:46:08;98327.88;;;23.08;81.95
35226;BME280;21813;49.686;21.766;2023-06-26T08:51:28;98308.25;;;23.22;80.87
35226;BME280;21813;49.686;21.766;2023-06-26T08:54:22;98314.19;;;22.98;79.03
35226;BME280;21813;49.686;21.766;2023-06-26T08:57:18;98335.69;;;23.16;79.84
35226;BME280;21813;49.686;21.766;2023-06-26T09:00:21;98330.78;;;23.32;80.65
35226;BME280;21813;49.686;21.766;2023-06-26T09:02:47;98314.41;;;23.35;78.96
35226;BME280;21813;49.686;21.766;2023-06-26T09:05:13;98304.19;;;23.39;81.76
35226;BME280;21813;49.686;21.766;2023-06-26T09:07:50;98307.47;;;23.48;79.41
35226;BME280;21813;49.686;21.766;2023-06-26T09:10:21;98328.50;;;23.82;74.19
35226;BME280;21813;49.686;21.766;2023-06-26T09:16:51;98318.09;;;23.41;75.40
35226;BME280;21813;49.686;21.766;2023-06-26T09:20:15;98321.81;;;23.47;71.46
35226;BME280;21813;49.686;21.766;2023-06-26T09:23:25;98272.88;;;23.34;75.35
35226;BME280;21813;49.686;21.766;2023-06-26T09:29:15;98286.19;;;23.61;70.98
35226;BME280;21813;49.686;21.766;2023-06-26T09:33:26;98290.25;;;23.63;71.61
35226;BME280;21813;49.686;21.766;2023-06-26T09:39:09;98312.75;;;23.74;73.61
35226;BME280;21813;49.686;21.766;2023-06-26T09:42:16;98313.34;;;23.83;73.18
35226;BME280;21813;49.686;21.766;2023-06-26T10:12:05;98278.38;;;23.72;72.91
35226;BME280;21813;49.686;21.766;2023-06-26T10:14:58;98269.34;;;23.80;71.81
35226;BME280;21813;49.686;21.766;2023-06-26T10:18:01;98271.97;;;23.93;72.58
35226;BME280;21813;49.686;21.766;2023-06-26T10:20:42;98302.41;;;24.30;75.36
35226;BME280;21813;49.686;21.766;2023-06-26T10:23:30;98276.16;;;24.34;72.41
35226;BME280;21813;49.686;21.766;2023-06-26T10:25:59;98267.50;;;24.38;69.37
35226;BME280;21813;49.686;21.766;2023-06-26T10:28:28;98264.59;;;24.46;64.55
35226;BME280;21813;49.686;21.766;2023-06-26T10:30:57;98271.94;;;24.51;66.34
35226;BME280;21813;49.686;21.766;2023-06-26T10:33:24;98264.31;;;24.61;69.73
35226;BME280;21813;49.686;21.766;2023-06-26T10:35:52;98291.97;;;24.67;67.11
35226;BME280;21813;49.686;21.766;2023-06-26T10:38:20;98288.31;;;24.61;66.12
35226;BME280;21813;49.686;21.766;2023-06-26T10:40:48;98272.03;;;24.38;66.71
35226;BME280;21813;49.686;21.766;2023-06-26T10:43:15;98269.41;;;24.31;64.55
35226;BME280;21813;49.686;21.766;2023-06-26T10:45:46;98286.44;;;24.24;65.62
35226;BME280;21813;49.686;21.766;2023-06-26T10:48:15;98253.97;;;23.95;67.46
35226;BME280;21813;49.686;21.766;2023-06-26T10:50:42;98288.91;;;24.12;66.85
35226;BME280;21813;49.686;21.766;2023-06-26T10:53:09;98268.94;;;23.83;67.52
35226;BME280;21813;49.686;21.766;2023-06-26T10:55:37;98278.97;;;23.81;66.13
35226;BME280;21813;49.686;21.766;2023-06-26T10:58:26;98273.66;;;23.74;66.40
35226;BME280;21813;49.686;21.766;2023-06-26T11:01:18;98252.75;;;23.78;66.03
35226;BME280;21813;49.686;21.766;2023-06-26T11:10:15;98272.94;;;24.05;65.59
35226;BME280;21813;49.686;21.766;2023-06-26T11:13:31;98239.00;;;23.94;66.33
35226;BME280;21813;49.686;21.766;2023-06-26T11:20:28;98243.84;;;24.10;64.95
35226;BME280;21813;49.686;21.766;2023-06-26T11:23:35;98265.09;;;24.37;64.93
35226;BME280;21813;49.686;21.766;2023-06-26T11:32:37;98264.81;;;24.45;61.64
35226;BME280;21813;49.686;21.766;2023-06-26T11:35:05;98245.25;;;24.19;62.08
35226;BME280;21813;49.686;21.766;2023-06-26T11:38:15;98239.78;;;24.08;62.69
35226;BME280;21813;49.686;21.766;2023-06-26T11:40:59;98247.09;;;24.26;61.83
35226;BME280;21813;49.686;21.766;2023-06-26T11:47:42;98224.63;;;24.08;59.85
35226;BME280;21813;49.686;21.766;2023-06-26T11:57:48;98243.34;;;24.40;61.32
35226;BME280;21813;49.686;21.766;2023-06-26T12:00:17;98247.84;;;24.33;61.61
35226;BME280;21813;49.686;21.766;2023-06-26T12:02:46;98224.53;;;24.28;62.63
35226;BME280;21813;49.686;21.766;2023-06-26T12:05:14;98266.28;;;24.41;62.34
35226;BME280;21813;49.686;21.766;2023-06-26T12:22:41;98226.41;;;24.21;61.31
35226;BME280;21813;49.686;21.766;2023-06-26T12:25:08;98266.28;;;24.41;62.44
35226;BME280;21813;49.686;21.766;2023-06-26T12:27:37;98244.59;;;24.31;62.78
35226;BME280;21813;49.686;21.766;2023-06-26T12:30:34;98219.63;;;24.25;64.46
35226;BME280;21813;49.686;21.766;2023-06-26T12:36:25;98213.00;;;24.41;61.99
35226;BME280;21813;49.686;21.766;2023-06-26T12:39:16;98254.00;;;24.71;61.60
35226;BME280;21813;49.686;21.766;2023-06-26T12:52:22;98196.38;;;24.70;58.46
35226;BME280;21813;49.686;21.766;2023-06-26T12:54:57;98208.66;;;24.78;63.23
35226;BME280;21813;49.686;21.766;2023-06-26T12:57:32;98214.72;;;24.91;64.51
35226;BME280;21813;49.686;21.766;2023-06-26T13:00:28;98224.41;;;25.11;62.89
35226;BME280;21813;49.686;21.766;2023-06-26T13:07:04;98224.81;;;25.07;61.15
35226;BME280;21813;49.686;21.766;2023-06-26T13:10:10;98191.91;;;24.95;59.59
35226;BME280;21813;49.686;21.766;2023-06-26T13:12:50;98181.03;;;24.97;56.86
35226;BME280;21813;49.686;21.766;2023-06-26T13:15:19;98211.06;;;25.11;58.82
35226;BME280;21813;49.686;21.766;2023-06-26T13:17:53;98180.75;;;25.05;56.87
35226;BME280;21813;49.686;21.766;2023-06-26T13:20:26;98215.69;;;25.22;57.51
35226;BME280;21813;49.686;21.766;2023-06-26T13:22:55;98197.63;;;25.24;57.08
35226;BME280;21813;49.686;21.766;2023-06-26T13:25:21;98178.47;;;25.08;55.58
35226;BME280;21813;49.686;21.766;2023-06-26T13:27:48;98174.22;;;25.01;55.40
35226;BME280;21813;49.686;21.766;2023-06-26T13:30:15;98172.91;;;25.10;56.70
35226;BME280;21813;49.686;21.766;2023-06-26T13:32:43;98177.28;;;25.04;56.50
35226;BME280;21813;49.686;21.766;2023-06-26T13:35:16;98207.88;;;25.20;60.62
35226;BME280;21813;49.686;21.766;2023-06-26T13:37:54;98181.28;;;25.14;56.75
35226;BME280;21813;49.686;21.766;2023-06-26T15:17:05;98125.72;;;25.29;57.78
35226;BME280;21813;49.686;21.766;2023-06-26T15:24:26;98118.75;;;25.28;58.05
35226;BME280;21813;49.686;21.766;2023-06-26T15:27:41;98117.88;;;25.34;55.52
35226;BME280;21813;49.686;21.766;2023-06-26T15:37:56;98111.63;;;25.40;54.54
35226;BME280;21813;49.686;21.766;2023-06-26T15:40:22;98085.78;;;25.22;54.32
35226;BME280;21813;49.686;21.766;2023-06-26T15:42:56;98092.91;;;25.28;56.24
35226;BME280;21813;49.686;21.766;2023-06-26T15:45:31;98097.72;;;25.20;57.05
35226;BME280;21813;49.686;21.766;2023-06-26T15:48:56;98100.00;;;25.16;54.56
35226;BME280;21813;49.686;21.766;2023-06-26T15:51:25;98059.56;;;25.01;54.76
35226;BME280;21813;49.686;21.766;2023-06-26T15:54:05;98101.41;;;25.19;56.72
35226;BME280;21813;49.686;21.766;2023-06-26T15:56:34;98074.66;;;25.07;56.77
35226;BME280;21813;49.686;21.766;2023-06-26T15:59:01;98077.56;;;25.05;57.73
35226;BME280;21813;49.686;21.766;2023-06-26T16:01:27;98060.22;;;24.96;55.47
35226;BME280;21813;49.686;21.766;2023-06-26T16:03:54;98056.44;;;25.04;56.03
35226;BME280;21813;49.686;21.766;2023-06-26T16:06:20;98080.66;;;25.21;57.53
35226;BME280;21813;49.686;21.766;2023-06-26T16:08:47;98053.72;;;25.11;56.13
35226;BME280;21813;49.686;21.766;2023-06-26T16:11:14;98076.28;;;25.26;56.51
35226;BME280;21813;49.686;21.766;2023-06-26T16:35:50;98036.50;;;24.88;56.93
35226;BME280;21813;49.686;21.766;2023-06-26T16:39:11;98081.56;;;25.15;56.82
35226;BME280;21813;49.686;21.766;2023-06-26T16:45:38;98073.56;;;25.33;55.56
35226;BME280;21813;49.686;21.766;2023-06-26T16:48:44;98036.59;;;25.00;56.48
35226;BME280;21813;49.686;21.766;2023-06-26T16:51:33;98035.75;;;24.99;56.63
35226;BME280;21813;49.686;21.766;2023-06-26T16:54:14;98075.47;;;25.07;56.93
35226;BME280;21813;49.686;21.766;2023-06-26T16:56:50;98047.91;;;24.95;57.00
35226;BME280;21813;49.686;21.766;2023-06-26T17:00:34;98068.06;;;25.10;57.03
35226;BME280;21813;49.686;21.766;2023-06-26T17:03:08;98052.06;;;24.91;57.69
35226;BME280;21813;49.686;21.766;2023-06-26T17:05:35;98061.25;;;24.95;58.30
35226;BME280;21813;49.686;21.766;2023-06-26T17:08:05;98051.50;;;24.83;58.51
35226;BME280;21813;49.686;21.766;2023-06-26T17:10:34;98047.25;;;24.75;58.42
35226;BME280;21813;49.686;21.766;2023-06-26T17:13:04;98038.84;;;24.78;58.45
35226;BME280;21813;49.686;21.766;2023-06-26T17:19:20;98037.03;;;24.54;59.53
35226;BME280;21813;49.686;21.766;2023-06-26T17:21:47;98054.56;;;24.61;60.04
35226;BME280;21813;49.686;21.766;2023-06-26T17:24:13;98053.59;;;24.56;60.42
35226;BME280;21813;49.686;21.766;2023-06-26T17:26:42;98064.81;;;24.64;59.88
35226;BME280;21813;49.686;21.766;2023-06-26T17:29:10;98055.22;;;24.57;60.34
35226;BME280;21813;49.686;21.766;2023-06-26T17:31:36;98023.06;;;24.34;60.46
35226;BME280;21813;49.686;21.766;2023-06-26T17:37:46;98042.84;;;24.44;61.30
35226;BME280;21813;49.686;21.766;2023-06-26T17:40:15;98062.19;;;24.58;62.07
35226;BME280;21813;49.686;21.766;2023-06-26T17:42:41;98023.66;;;24.36;63.20
35226;BME280;21813;49.686;21.766;2023-06-26T17:45:14;98058.03;;;24.44;64.68
35226;BME280;21813;49.686;21.766;2023-06-26T17:47:43;98044.75;;;24.37;62.97
35226;BME280;21813;49.686;21.766;2023-06-26T17:50:10;98051.13;;;24.36;63.09
35226;BME280;21813;49.686;21.766;2023-06-26T17:52:41;98014.41;;;24.13;62.44
35226;BME280;21813;49.686;21.766;2023-06-26T17:55:15;98041.78;;;24.27;62.65
35226;BME280;21813;49.686;21.766;2023-06-26T17:57:49;98026.94;;;24.06;62.42
35226;BME280;21813;49.686;21.766;2023-06-26T18:00:19;98036.50;;;24.14;64.44
35226;BME280;21813;49.686;21.766;2023-06-26T18:02:45;98061.06;;;24.23;65.13
35226;BME280;21813;49.686;21.766;2023-06-26T18:05:15;98060.91;;;24.11;65.58
35226;BME280;21813;49.686;21.766;2023-06-26T18:14:58;98033.00;;;23.57;68.63
35226;BME280;21813;49.686;21.766;2023-06-26T18:18:08;98062.22;;;23.64;69.38
35226;BME280;21813;49.686;21.766;2023-06-26T18:20:40;98062.50;;;23.49;70.08
35226;BME280;21813;49.686;21.766;2023-06-26T18:26:46;98033.03;;;22.80;71.76
35226;BME280;21813;49.686;21.766;2023-06-26T18:30:08;98049.81;;;22.87;71.88
35226;BME280;21813;49.686;21.766;2023-06-26T18:33:46;98053.50;;;22.73;73.24
35226;BME280;21813;49.686;21.766;2023-06-26T18:46:18;98080.06;;;22.53;73.06
35226;BME280;21813;49.686;21.766;2023-06-26T18:49:04;98078.03;;;22.48;74.01
35226;BME280;21813;49.686;21.766;2023-06-26T18:51:31;98052.50;;;22.21;74.47